Time,TemperatureF,DewpointF,PressureIn,WindDirection,WindDirectionDegrees,WindSpeedMPH,WindSpeedGustMPH,Humidity,HourlyPrecipIn,Conditions,Clouds,dailyrainin,SolarRadiationWatts/m^2,SoftwareType,DateUTC
2013-08-30 00:00:00,77.4,70.4,29.95,SE,140,0.0,2.0,79,0.00,,,0.00,0.00,VWS V14.00,2013-08-30 04:00:00,
2013-08-30 00:01:00,77.4,70.4,29.95,SE,140,0.0,2.0,79,0.00,,,0.00,0.00,VWS V14.00,2013-08-30 04:01:00,
2013-08-30 00:03:00,77.4,70.4,29.95,SE,140,0.0,2.0,79,0.00,,,0.00,0.00,VWS V14.00,2013-08-30 04:03:00,
2013-08-30 00:04:00,77.4,70.4,29.95,SE,140,0.0,0.0,79,0.00,,,0.00,0.00,VWS V14.00,2013-08-30 04:04:00,
2013-08-30 00:09:00,77.4,70.4,29.95,SE,140,0.0,0.0,79,0.00,,,0.00,0.00,VWS V14.00,2013-08-30 04:09:00,
2013-08-30 00:14:00,77.4,70.4,29.95,SE,140,0.0,0.0,79,0.00,,,0.00,0.00,VWS V14.00,2013-08-30 04:14:00,
2013-08-30 00:19:00,77.4,70.4,29.96,SE,140,0.0,0.0,79,0.00,,,0.00,0.00,VWS V14.00,2013-08-30 04:19:00,
2013-08-30 00:24:00,77.4,70.4,29.96,SE,140,0.0,0.0,79,0.00,,,0.00,0.00,VWS V14.00,2013-08-30 04:24:00,
2013-08-30 00:29:00,77.4,70.0,29.96,SE,140,0.0,0.0,78,0.00,,,0.00,0.00,VWS V14.00,2013-08-30 04:29:00,
2013-08-30 00:34:00,77.2,70.2,29.96,SE,140,0.0,0.0,79,0.00,,,0.00,0.00,VWS V14.00,2013-08-30 04:34:00,
2013-08-30 00:39:00,77.2,70.2,29.96,SE,140,0.0,0.0,79,0.00,,,0.00,0.00,VWS V14.00,2013-08-30 04:39:00,
2013-08-30 00:44:00,77.0,70.0,29.96,SE,140,0.0,0.0,79,0.00,,,0.00,0.00,VWS V14.00,2013-08-30 04:44:00,
2013-08-30 00:49:00,77.0,70.0,29.96,SE,140,0.0,0.0,79,0.00,,,0.00,0.00,VWS V14.00,2013-08-30 04:49:00,
2013-08-30 00:54:00,77.0,70.0,29.96,SE,140,0.0,0.0,79,0.00,,,0.00,0.00,VWS V14.00,2013-08-30 04:54:00,
2013-08-30 00:59:00,76.8,70.2,29.96,SE,140,0.0,0.0,80,0.00,,,0.00,0.00,VWS V14.00,2013-08-30 04:59:00,
2013-08-30 01:04:00,76.8,70.2,29.96,SE,140,0.0,0.0,80,0.00,,SCT070,0.00,0.00,VWS V14.00,2013-08-30 05:04:00,
2013-08-30 01:09:00,76.7,70.1,29.96,SE,140,0.0,0.0,80,0.00,,SCT070,0.00,0.00,VWS V14.00,2013-08-30 05:09:00,
2013-08-30 01:14:00,76.7,70.1,29.96,SE,140,0.0,0.0,80,0.00,,SCT070,0.00,0.00,VWS V14.00,2013-08-30 05:14:00,
2013-08-30 01:19:00,76.7,70.1,29.95,SE,140,0.0,0.0,80,0.00,,SCT070,0.00,0.00,VWS V14.00,2013-08-30 05:19:00,
2013-08-30 01:24:00,76.7,70.1,29.95,SE,140,0.0,0.0,80,0.00,,SCT070,0.00,0.00,VWS V14.00,2013-08-30 05:24:00,
2013-08-30 01:29:00,76.5,69.9,29.95,SE,140,0.0,0.0,80,0.00,,SCT070,0.00,0.00,VWS V14.00,2013-08-30 05:29:00,
2013-08-30 01:34:00,76.5,69.9,29.96,SE,140,0.0,0.0,80,0.00,,SCT070,0.00,0.00,VWS V14.00,2013-08-30 05:34:00,
2013-08-30 01:39:00,76.5,69.9,29.96,SE,140,0.0,0.0,80,0.00,,SCT070,0.00,0.00,VWS V14.00,2013-08-30 05:39:00,
2013-08-30 01:44:00,76.5,69.9,29.96,SE,140,0.0,0.0,80,0.00,,SCT070,0.00,0.00,VWS V14.00,2013-08-30 05:44:00,
2013-08-30 01:49:00,76.3,69.7,29.96,SE,140,0.0,0.0,80,0.00,,SCT070,0.00,0.00,VWS V14.00,2013-08-30 05:49:00,
2013-08-30 01:54:00,76.3,69.7,29.96,SE,140,0.0,0.0,80,0.00,,SCT070,0.00,0.00,VWS V14.00,2013-08-30 05:54:00,
2013-08-30 01:59:00,76.1,69.5,29.96,SE,140,0.0,0.0,80,0.00,,SCT070,0.00,0.00,VWS V14.00,2013-08-30 05:59:00,
2013-08-30 02:04:00,76.1,69.5,29.95,SE,143,0.0,0.0,80,0.00,,SCT049,0.00,0.00,VWS V14.00,2013-08-30 06:04:00,
2013-08-30 02:09:00,76.0,69.4,29.95,SE,126,0.0,0.0,80,0.00,,SCT049,0.00,0.00,VWS V14.00,2013-08-30 06:09:00,
2013-08-30 02:14:00,76.0,69.4,29.95,SE,126,0.0,0.0,80,0.00,,SCT049,0.00,0.00,VWS V14.00,2013-08-30 06:14:00,
2013-08-30 02:19:00,75.8,69.2,29.95,SE,126,0.0,0.0,80,0.00,,SCT049,0.00,0.00,VWS V14.00,2013-08-30 06:19:00,
2013-08-30 02:24:00,75.8,69.2,29.95,SE,126,0.0,0.0,80,0.00,,SCT049,0.00,0.00,VWS V14.00,2013-08-30 06:24:00,
2013-08-30 02:29:00,75.8,69.6,29.95,SE,126,0.0,0.0,81,0.00,,SCT049,0.00,0.00,VWS V14.00,2013-08-30 06:29:00,
2013-08-30 02:34:00,75.6,69.4,29.95,SE,126,0.0,0.0,81,0.00,,SCT049,0.00,0.00,VWS V14.00,2013-08-30 06:34:00,
2013-08-30 02:39:00,75.6,69.4,29.95,SE,126,0.0,0.0,81,0.00,,SCT049,0.00,0.00,VWS V14.00,2013-08-30 06:39:00,
2013-08-30 02:44:00,75.4,69.2,29.95,SE,126,0.0,0.0,81,0.00,,SCT049,0.00,0.00,VWS V14.00,2013-08-30 06:44:00,
2013-08-30 02:49:00,75.4,69.2,29.95,SE,127,0.0,0.0,81,0.00,,SCT049,0.00,0.00,VWS V14.00,2013-08-30 06:49:00,
2013-08-30 02:54:00,75.3,69.1,29.95,SE,127,0.0,0.0,81,0.00,,SCT049,0.00,0.00,VWS V14.00,2013-08-30 06:54:00,
2013-08-30 02:59:00,75.3,69.1,29.95,SE,127,0.0,0.0,81,0.00,,SCT049,0.00,0.00,VWS V14.00,2013-08-30 06:59:00,
2013-08-30 03:04:00,75.3,69.4,29.95,SE,127,0.0,0.0,82,0.00,,CLR,0.00,0.00,VWS V14.00,2013-08-30 07:04:00,
2013-08-30 03:09:00,75.1,69.2,29.95,SE,127,0.0,0.0,82,0.00,,CLR,0.00,0.00,VWS V14.00,2013-08-30 07:09:00,
2013-08-30 03:14:00,75.1,69.2,29.95,SE,127,0.0,0.0,82,0.00,,CLR,0.00,0.00,VWS V14.00,2013-08-30 07:14:00,
2013-08-30 03:19:00,75.1,69.2,29.95,SE,127,0.0,0.0,82,0.00,,CLR,0.00,0.00,VWS V14.00,2013-08-30 07:19:00,
2013-08-30 03:24:00,74.9,69.0,29.95,SE,127,0.0,0.0,82,0.00,,CLR,0.00,0.00,VWS V14.00,2013-08-30 07:24:00,
2013-08-30 03:29:00,74.9,69.4,29.95,SE,127,0.0,0.0,83,0.00,,CLR,0.00,0.00,VWS V14.00,2013-08-30 07:29:00,
2013-08-30 03:34:00,74.9,69.4,29.95,SE,127,0.0,0.0,83,0.00,,CLR,0.00,0.00,VWS V14.00,2013-08-30 07:34:00,
2013-08-30 03:39:00,74.9,69.4,29.95,SE,127,0.0,0.0,83,0.00,,CLR,0.00,0.00,VWS V14.00,2013-08-30 07:39:00,
2013-08-30 03:44:00,74.7,69.2,29.95,SE,127,0.0,0.0,83,0.00,,CLR,0.00,0.00,VWS V14.00,2013-08-30 07:44:00,
2013-08-30 03:49:00,74.7,69.2,29.95,SE,127,0.0,0.0,83,0.00,,CLR,0.00,0.00,VWS V14.00,2013-08-30 07:49:00,
2013-08-30 03:54:00,74.7,69.2,29.95,SE,127,0.0,0.0,83,0.00,,CLR,0.00,0.00,VWS V14.00,2013-08-30 07:54:00,
2013-08-30 03:59:00,74.6,69.4,29.95,SE,127,0.0,0.0,84,0.00,,CLR,0.00,0.00,VWS V14.00,2013-08-30 07:59:00,
2013-08-30 04:04:00,74.6,69.4,29.95,SE,127,0.0,0.0,84,0.00,,CLR,0.00,0.00,VWS V14.00,2013-08-30 08:04:00,
2013-08-30 04:09:00,74.6,69.4,29.95,SE,127,0.0,0.0,84,0.00,,CLR,0.00,0.00,VWS V14.00,2013-08-30 08:09:00,
2013-08-30 04:14:00,74.4,69.3,29.95,SE,127,0.0,0.0,84,0.00,,CLR,0.00,0.00,VWS V14.00,2013-08-30 08:14:00,
2013-08-30 04:19:00,74.4,69.3,29.95,SE,127,0.0,0.0,84,0.00,,CLR,0.00,0.00,VWS V14.00,2013-08-30 08:19:00,
2013-08-30 04:24:00,74.4,69.3,29.95,SE,127,0.0,0.0,84,0.00,,CLR,0.00,0.00,VWS V14.00,2013-08-30 08:24:00,
2013-08-30 04:29:00,74.2,69.1,29.95,SE,127,0.0,0.0,84,0.00,,CLR,0.00,0.00,VWS V14.00,2013-08-30 08:29:00,
2013-08-30 04:34:00,74.2,69.4,29.95,SE,127,0.0,0.0,85,0.00,,CLR,0.00,0.00,VWS V14.00,2013-08-30 08:34:00,
2013-08-30 04:39:00,74.2,69.4,29.95,SE,127,0.0,0.0,85,0.00,,CLR,0.00,0.00,VWS V14.00,2013-08-30 08:39:00,
2013-08-30 04:44:00,74.2,69.4,29.95,SE,127,0.0,0.0,85,0.00,,CLR,0.00,0.00,VWS V14.00,2013-08-30 08:44:00,
2013-08-30 04:49:00,74.2,69.4,29.95,SE,127,0.0,0.0,85,0.00,,CLR,0.00,0.00,VWS V14.00,2013-08-30 08:49:00,
2013-08-30 04:54:00,74.0,69.2,29.95,SE,127,0.0,0.0,85,0.00,,CLR,0.00,0.00,VWS V14.00,2013-08-30 08:54:00,
2013-08-30 04:59:00,74.0,69.2,29.95,SE,127,0.0,0.0,85,0.00,,CLR,0.00,0.00,VWS V14.00,2013-08-30 08:59:00,
2013-08-30 05:04:00,74.0,69.2,29.95,SE,127,0.0,0.0,85,0.00,,,0.00,0.00,VWS V14.00,2013-08-30 09:04:00,
2013-08-30 05:09:00,74.0,69.6,29.95,SE,127,0.0,0.0,86,0.00,,,0.00,0.00,VWS V14.00,2013-08-30 09:09:00,
2013-08-30 05:14:00,74.0,69.6,29.95,SE,127,0.0,0.0,86,0.00,,,0.00,0.00,VWS V14.00,2013-08-30 09:14:00,
2013-08-30 05:19:00,74.0,69.6,29.96,SE,127,0.0,0.0,86,0.00,,,0.00,0.00,VWS V14.00,2013-08-30 09:19:00,
2013-08-30 05:24:00,74.0,69.6,29.96,SE,127,0.0,0.0,86,0.00,,,0.00,0.00,VWS V14.00,2013-08-30 09:24:00,
2013-08-30 05:29:00,74.0,69.6,29.96,SE,127,0.0,0.0,86,0.00,,,0.00,0.00,VWS V14.00,2013-08-30 09:29:00,
2013-08-30 05:34:00,74.0,69.6,29.96,East,85,0.0,3.0,86,0.00,,,0.00,0.00,VWS V14.00,2013-08-30 09:34:00,
2013-08-30 05:39:00,74.0,69.9,29.96,East,85,0.0,3.0,87,0.00,,,0.00,0.00,VWS V14.00,2013-08-30 09:39:00,
2013-08-30 05:44:00,74.0,69.9,29.96,East,85,0.0,0.0,87,0.00,,,0.00,0.00,VWS V14.00,2013-08-30 09:44:00,
2013-08-30 05:49:00,73.9,69.8,29.97,East,85,0.0,0.0,87,0.00,,,0.00,0.00,VWS V14.00,2013-08-30 09:49:00,
2013-08-30 05:54:00,73.9,69.8,29.97,East,85,0.0,0.0,87,0.00,,,0.00,0.00,VWS V14.00,2013-08-30 09:54:00,
2013-08-30 05:59:00,73.9,69.8,29.97,East,85,0.0,0.0,87,0.00,,,0.00,0.00,VWS V14.00,2013-08-30 09:59:00,
2013-08-30 06:04:00,73.9,69.8,29.97,East,85,0.0,0.0,87,0.00,,,0.00,0.00,VWS V14.00,2013-08-30 10:04:00,
2013-08-30 06:09:00,73.9,69.8,29.97,ESE,114,0.0,0.0,87,0.00,,,0.00,0.00,VWS V14.00,2013-08-30 10:09:00,
2013-08-30 06:14:00,73.9,69.8,29.97,ESE,114,0.0,0.0,87,0.00,,,0.00,0.00,VWS V14.00,2013-08-30 10:14:00,
2013-08-30 06:19:00,73.7,69.6,29.97,East,82,0.0,3.0,87,0.00,,,0.00,0.00,VWS V14.00,2013-08-30 10:19:00,
2013-08-30 06:24:00,73.7,69.6,29.97,East,82,0.0,0.0,87,0.00,,,0.00,0.00,VWS V14.00,2013-08-30 10:24:00,
2013-08-30 06:29:00,73.7,69.6,29.97,SSE,154,0.0,2.0,87,0.00,,,0.00,0.00,VWS V14.00,2013-08-30 10:29:00,
2013-08-30 06:34:00,73.7,69.9,29.97,ESE,121,0.0,0.0,88,0.00,,,0.00,0.00,VWS V14.00,2013-08-30 10:34:00,
2013-08-30 06:39:00,73.5,69.7,29.97,SE,128,0.0,0.0,88,0.00,,,0.00,0.00,VWS V14.00,2013-08-30 10:39:00,
2013-08-30 06:44:00,73.5,69.7,29.97,SE,128,0.0,0.0,88,0.00,,,0.00,0.00,VWS V14.00,2013-08-30 10:44:00,
2013-08-30 06:49:00,73.5,69.7,29.99,SE,126,0.0,0.0,88,0.00,,,0.00,0.00,VWS V14.00,2013-08-30 10:49:00,
2013-08-30 06:54:00,73.5,69.7,29.99,NE,37,1.0,2.0,88,0.00,,,0.00,0.00,VWS V14.00,2013-08-30 10:54:00,
2013-08-30 06:59:00,73.5,69.7,29.99,WNW,295,0.0,2.0,88,0.00,,,0.00,0.00,VWS V14.00,2013-08-30 10:59:00,
2013-08-30 07:04:00,73.5,69.7,29.99,ESE,104,0.0,0.0,88,0.00,,CLR,0.00,5.00,VWS V14.00,2013-08-30 11:04:00,
2013-08-30 07:09:00,73.5,69.7,29.99,SE,133,0.0,1.0,88,0.00,,CLR,0.00,5.00,VWS V14.00,2013-08-30 11:09:00,
2013-08-30 07:14:00,73.5,69.7,29.99,SSE,148,0.0,0.0,88,0.00,,CLR,0.00,7.00,VWS V14.00,2013-08-30 11:14:00,
2013-08-30 07:19:00,73.7,69.9,30.00,North,0,0.0,3.0,88,0.00,,CLR,0.00,7.00,VWS V14.00,2013-08-30 11:19:00,
2013-08-30 07:24:00,73.7,69.9,30.00,North,0,0.0,0.0,88,0.00,,CLR,0.00,9.00,VWS V14.00,2013-08-30 11:24:00,
2013-08-30 07:29:00,73.7,69.9,30.00,SW,217,0.0,0.0,88,0.00,,CLR,0.00,12.00,VWS V14.00,2013-08-30 11:29:00,
2013-08-30 07:34:00,73.7,69.9,30.01,ESE,113,2.0,3.0,88,0.00,,CLR,0.00,16.00,VWS V14.00,2013-08-30 11:34:00,
2013-08-30 07:39:00,73.7,69.9,30.01,North,3,0.0,3.0,88,0.00,,CLR,0.00,16.00,VWS V14.00,2013-08-30 11:39:00,
2013-08-30 07:44:00,73.7,69.9,30.01,ESE,103,0.0,1.0,88,0.00,,,0.00,23.00,VWS V14.00,2013-08-30 11:44:00,
2013-08-30 07:49:00,73.7,69.9,30.00,East,100,0.0,3.0,88,0.00,,,0.00,23.00,VWS V14.00,2013-08-30 11:49:00,
2013-08-30 07:54:00,73.7,71.2,30.00,NNE,27,0.0,0.0,92,0.00,,,0.00,26.00,VWS V14.00,2013-08-30 11:54:00,
2013-08-30 07:59:00,73.9,71.4,30.00,ESE,106,0.0,2.0,92,0.00,,,0.00,28.00,VWS V14.00,2013-08-30 11:59:00,
2013-08-30 08:04:00,73.9,71.4,30.01,East,93,0.0,3.0,92,0.00,,,0.00,33.00,VWS V14.00,2013-08-30 12:04:00,
2013-08-30 08:09:00,73.9,71.4,30.01,SSE,151,0.0,3.0,92,0.00,,,0.00,30.00,VWS V14.00,2013-08-30 12:09:00,
2013-08-30 08:14:00,73.9,71.4,30.01,ENE,72,0.0,2.0,92,0.00,,,0.00,35.00,VWS V14.00,2013-08-30 12:14:00,
2013-08-30 08:19:00,74.0,71.5,30.01,ESE,112,0.0,2.0,92,0.00,,,0.00,55.00,VWS V14.00,2013-08-30 12:19:00,
2013-08-30 08:24:00,74.0,71.5,30.01,SE,131,0.0,2.0,92,0.00,,,0.00,53.00,VWS V14.00,2013-08-30 12:24:00,
2013-08-30 08:29:00,74.0,71.5,30.01,SE,124,0.0,2.0,92,0.00,,,0.00,62.00,VWS V14.00,2013-08-30 12:29:00,
2013-08-30 08:34:00,74.0,71.5,30.01,SSW,196,2.0,5.0,92,0.00,,,0.00,65.00,VWS V14.00,2013-08-30 12:34:00,
2013-08-30 08:39:00,74.2,71.7,30.01,North,352,0.0,5.0,92,0.00,,,0.00,69.00,VWS V14.00,2013-08-30 12:39:00,
2013-08-30 08:44:00,74.2,71.4,30.01,ESE,116,0.0,1.0,91,0.00,,,0.00,69.00,VWS V14.00,2013-08-30 12:44:00,
2013-08-30 08:49:00,74.4,71.6,30.02,East,80,0.0,2.0,91,0.00,,,0.00,70.00,VWS V14.00,2013-08-30 12:49:00,
2013-08-30 08:54:00,74.4,71.6,30.02,ENE,71,0.0,0.0,91,0.00,,,0.00,90.00,VWS V14.00,2013-08-30 12:54:00,
2013-08-30 08:59:00,74.4,71.3,30.02,ESE,102,0.0,1.0,90,0.00,,,0.00,79.00,VWS V14.00,2013-08-30 12:59:00,
2013-08-30 09:04:00,74.6,71.5,30.02,SE,130,0.0,1.0,90,0.00,,,0.00,86.00,VWS V14.00,2013-08-30 13:04:00,
2013-08-30 09:09:00,74.6,71.5,30.02,South,189,0.0,2.0,90,0.00,,,0.00,72.00,VWS V14.00,2013-08-30 13:09:00,
2013-08-30 09:14:00,74.7,71.6,30.02,ENE,61,0.0,0.0,90,0.00,,,0.00,72.00,VWS V14.00,2013-08-30 13:14:00,
2013-08-30 09:19:00,74.9,71.4,30.03,SE,143,0.0,1.0,89,0.00,,,0.00,102.00,VWS V14.00,2013-08-30 13:19:00,
2013-08-30 09:24:00,74.9,71.4,30.03,WSW,248,0.0,0.0,89,0.00,,,0.00,86.00,VWS V14.00,2013-08-30 13:24:00,
2013-08-30 09:29:00,75.1,71.6,30.03,WSW,247,0.0,0.0,89,0.00,,,0.00,70.00,VWS V14.00,2013-08-30 13:29:00,
2013-08-30 09:34:00,75.3,71.8,30.04,WSW,247,0.0,0.0,89,0.00,,,0.00,76.00,VWS V14.00,2013-08-30 13:34:00,
2013-08-30 09:39:00,75.3,71.5,30.04,ESE,110,1.0,3.0,88,0.00,,,0.00,74.00,VWS V14.00,2013-08-30 13:39:00,
2013-08-30 09:44:00,75.3,71.5,30.04,ESE,112,0.0,0.0,88,0.00,,,0.00,72.00,VWS V14.00,2013-08-30 13:44:00,
2013-08-30 09:49:00,75.3,71.5,30.04,ENE,64,0.0,1.0,88,0.00,,,0.00,67.00,VWS V14.00,2013-08-30 13:49:00,
2013-08-30 09:54:00,75.3,71.5,30.04,SW,216,0.0,1.0,88,0.00,,,0.00,67.00,VWS V14.00,2013-08-30 13:54:00,
2013-08-30 09:59:00,75.4,71.6,30.04,SW,216,0.0,1.0,88,0.00,,,0.00,90.00,VWS V14.00,2013-08-30 13:59:00,
2013-08-30 10:04:00,75.4,71.6,30.04,SSW,192,0.0,0.0,88,0.00,,,0.00,84.00,VWS V14.00,2013-08-30 14:04:00,
2013-08-30 10:09:00,75.6,71.8,30.04,SSW,192,0.0,0.0,88,0.00,,,0.00,91.00,VWS V14.00,2013-08-30 14:09:00,
2013-08-30 10:14:00,75.6,71.5,30.04,SE,144,0.0,0.0,87,0.00,,,0.00,113.00,VWS V14.00,2013-08-30 14:14:00,
2013-08-30 10:19:00,75.8,71.7,30.04,ENE,68,0.0,0.0,87,0.00,,,0.00,107.00,VWS V14.00,2013-08-30 14:19:00,
2013-08-30 10:24:00,75.8,71.7,30.04,SSE,167,0.0,0.0,87,0.00,,OVC015,0.00,111.00,VWS V14.00,2013-08-30 14:24:00,
2013-08-30 10:29:00,75.8,71.7,30.04,SSE,167,0.0,0.0,87,0.00,,OVC015,0.00,127.00,VWS V14.00,2013-08-30 14:29:00,
2013-08-30 10:34:00,76.0,71.5,30.05,SSE,165,0.0,3.0,86,0.00,,OVC013,0.00,143.00,VWS V14.00,2013-08-30 14:34:00,
2013-08-30 10:39:00,76.0,71.2,30.05,ESE,106,0.0,3.0,85,0.00,,OVC013,0.00,146.00,VWS V14.00,2013-08-30 14:39:00,
2013-08-30 10:44:00,76.1,71.3,30.05,SE,134,1.0,1.0,85,0.00,,OVC013,0.00,155.00,VWS V14.00,2013-08-30 14:44:00,
2013-08-30 10:49:00,76.1,71.3,30.05,ESE,112,0.0,2.0,85,0.00,,OVC013,0.00,176.00,VWS V14.00,2013-08-30 14:49:00,
2013-08-30 10:54:00,76.3,71.1,30.05,NNW,328,0.0,0.0,84,0.00,,OVC015,0.00,218.00,VWS V14.00,2013-08-30 14:54:00,
2013-08-30 10:59:00,76.5,71.3,30.05,SSW,205,0.0,1.0,84,0.00,,OVC015,0.00,174.00,VWS V14.00,2013-08-30 14:59:00,
2013-08-30 11:04:00,76.7,71.2,30.04,South,172,0.0,3.0,83,0.00,,OVC017,0.00,183.00,VWS V14.00,2013-08-30 15:04:00,
2013-08-30 11:09:00,77.0,71.8,30.04,South,178,0.0,3.0,84,0.00,,OVC017,0.00,415.00,VWS V14.00,2013-08-30 15:09:00,
2013-08-30 11:14:00,77.4,71.5,30.04,North,0,0.0,1.0,82,0.00,,OVC017,0.00,475.00,VWS V14.00,2013-08-30 15:14:00,
2013-08-30 11:19:00,78.1,71.8,30.04,SE,131,0.0,5.0,81,0.00,,OVC017,0.00,445.00,VWS V14.00,2013-08-30 15:19:00,
2013-08-30 11:24:00,78.5,71.1,30.04,NE,54,0.0,6.0,78,0.00,,OVC017,0.00,303.00,VWS V14.00,2013-08-30 15:24:00,
2013-08-30 11:29:00,78.8,71.0,30.04,SW,236,0.0,6.0,77,0.00,,OVC017,0.00,267.00,VWS V14.00,2013-08-30 15:29:00,
2013-08-30 11:34:00,79.0,70.8,30.04,ENE,59,0.0,1.0,76,0.00,,OVC017,0.00,269.00,VWS V14.00,2013-08-30 15:34:00,
2013-08-30 11:39:00,79.4,70.8,30.04,SW,223,0.0,3.0,75,0.00,,OVC017,0.00,361.00,VWS V14.00,2013-08-30 15:39:00,
2013-08-30 11:44:00,79.8,71.6,30.04,ENE,66,0.0,3.0,76,0.00,,OVC017,0.00,315.00,VWS V14.00,2013-08-30 15:44:00,
2013-08-30 11:49:00,79.8,71.6,30.04,NE,56,0.0,3.0,76,0.00,,OVC017,0.00,315.00,VWS V14.00,2013-08-30 15:49:00,
2013-08-30 11:54:00,79.8,71.6,30.04,SE,133,2.0,4.0,76,0.00,,OVC017,0.00,289.00,VWS V14.00,2013-08-30 15:54:00,
2013-08-30 11:59:00,79.8,71.2,30.04,SSW,195,0.0,4.0,75,0.00,,OVC017,0.00,301.00,VWS V14.00,2013-08-30 15:59:00,
2013-08-30 12:04:00,79.8,71.6,30.04,SSE,165,0.0,3.0,76,0.00,,OVC025,0.00,549.00,VWS V14.00,2013-08-30 16:04:00,
2013-08-30 12:09:00,80.1,72.2,30.04,ENE,71,0.0,3.0,77,0.00,,OVC025,0.00,496.00,VWS V14.00,2013-08-30 16:09:00,
2013-08-30 12:14:00,80.5,71.8,30.04,SE,141,0.0,2.0,75,0.00,,OVC025,0.00,412.00,VWS V14.00,2013-08-30 16:14:00,
2013-08-30 12:19:00,80.9,71.8,30.03,NNE,32,0.0,2.0,74,0.00,,OVC025,0.00,436.00,VWS V14.00,2013-08-30 16:19:00,
2013-08-30 12:24:00,81.2,72.1,30.03,NNE,27,0.0,3.0,74,0.00,,OVC025,0.00,1017.00,VWS V14.00,2013-08-30 16:24:00,
2013-08-30 12:29:00,81.6,71.7,30.03,ESE,110,0.0,3.0,72,0.00,,OVC025,0.00,422.00,VWS V14.00,2013-08-30 16:29:00,
2013-08-30 12:34:00,82.2,71.9,30.03,South,175,0.0,2.0,71,0.00,,OVC025,0.00,454.00,VWS V14.00,2013-08-30 16:34:00,
2013-08-30 12:39:00,82.6,71.4,30.03,SSW,208,0.0,3.0,69,0.00,,OVC025,0.00,443.00,VWS V14.00,2013-08-30 16:39:00,
2013-08-30 12:44:00,83.0,71.4,30.03,SSE,162,0.0,3.0,68,0.00,,OVC025,0.00,1063.00,VWS V14.00,2013-08-30 16:44:00,
2013-08-30 12:49:00,83.8,72.6,30.02,East,79,0.0,3.0,69,0.00,,OVC025,0.00,336.00,VWS V14.00,2013-08-30 16:49:00,
2013-08-30 12:54:00,83.4,71.7,30.02,East,85,0.0,3.0,68,0.00,,OVC025,0.00,484.00,VWS V14.00,2013-08-30 16:54:00,
2013-08-30 12:59:00,83.2,72.0,30.02,ENE,64,0.0,3.0,69,0.00,,OVC025,0.00,436.00,VWS V14.00,2013-08-30 16:59:00,
2013-08-30 13:04:00,83.2,72.0,30.02,East,86,0.0,1.0,69,0.00,,OVC027,0.00,447.00,VWS V14.00,2013-08-30 17:04:00,
2013-08-30 13:09:00,83.2,72.0,30.02,East,86,0.0,3.0,69,0.00,,OVC027,0.00,466.00,VWS V14.00,2013-08-30 17:09:00,
2013-08-30 13:14:00,83.4,73.0,30.02,ENE,78,0.0,1.0,71,0.00,,OVC027,0.00,1063.00,VWS V14.00,2013-08-30 17:14:00,
2013-08-30 13:19:00,83.8,72.1,30.02,NE,37,0.0,1.0,68,0.00,,OVC027,0.00,396.00,VWS V14.00,2013-08-30 17:19:00,
2013-08-30 13:24:00,83.6,71.9,30.02,SSW,205,1.0,1.0,68,0.00,,OVC027,0.00,452.00,VWS V14.00,2013-08-30 17:24:00,
2013-08-30 13:29:00,83.6,72.4,30.02,NNW,330,0.0,1.0,69,0.00,,OVC027,0.00,537.00,VWS V14.00,2013-08-30 17:29:00,
2013-08-30 13:34:00,83.8,72.6,30.02,NNW,335,0.0,1.0,69,0.00,,OVC027,0.00,1036.00,VWS V14.00,2013-08-30 17:34:00,
2013-08-30 13:39:00,84.1,72.4,30.02,ENE,69,0.0,1.0,68,0.00,,OVC027,0.00,472.00,VWS V14.00,2013-08-30 17:39:00,
2013-08-30 13:44:00,84.1,71.5,30.02,North,0,0.0,0.0,66,0.00,,OVC027,0.00,456.00,VWS V14.00,2013-08-30 17:44:00,
2013-08-30 13:49:00,84.3,71.3,30.01,North,357,0.0,0.0,65,0.00,,OVC027,0.00,410.00,VWS V14.00,2013-08-30 17:49:00,
2013-08-30 13:54:00,84.1,71.5,30.01,East,95,1.0,3.0,66,0.00,,OVC027,0.00,389.00,VWS V14.00,2013-08-30 17:54:00,
2013-08-30 13:59:00,84.0,71.4,30.01,West,274,0.0,3.0,66,0.00,,OVC027,0.00,463.00,VWS V14.00,2013-08-30 17:59:00,
2013-08-30 14:04:00,84.3,72.6,30.01,NE,34,0.0,1.0,68,0.00,,BKN027,0.00,670.00,VWS V14.00,2013-08-30 18:04:00,
2013-08-30 14:09:00,84.5,71.9,30.01,NE,35,0.0,1.0,66,0.00,,BKN027,0.00,408.00,VWS V14.00,2013-08-30 18:09:00,
2013-08-30 14:14:00,84.7,72.5,30.01,NE,34,0.0,0.0,67,0.00,,BKN027,0.00,1042.00,VWS V14.00,2013-08-30 18:14:00,
2013-08-30 14:19:00,85.1,72.0,30.00,South,169,0.0,5.0,65,0.00,,BKN027,0.00,1024.00,VWS V14.00,2013-08-30 18:19:00,
2013-08-30 14:24:00,85.9,72.3,30.00,South,189,0.0,3.0,64,0.00,,BKN027,0.00,984.00,VWS V14.00,2013-08-30 18:24:00,
2013-08-30 14:29:00,86.1,72.0,30.00,NE,51,0.0,3.0,63,0.00,,BKN027,0.00,743.00,VWS V14.00,2013-08-30 18:29:00,
2013-08-30 14:34:00,86.3,71.8,30.00,NE,55,0.0,1.0,62,0.00,,BKN027,0.00,966.00,VWS V14.00,2013-08-30 18:34:00,
2013-08-30 14:39:00,86.5,72.9,30.00,NW,304,1.0,2.0,64,0.00,,BKN027,0.00,540.00,VWS V14.00,2013-08-30 18:39:00,
2013-08-30 14:44:00,86.5,71.9,30.00,East,85,0.0,1.0,62,0.00,,BKN027,0.00,378.00,VWS V14.00,2013-08-30 18:44:00,
2013-08-30 14:49:00,86.5,71.9,29.99,East,85,0.0,2.0,62,0.00,,BKN027,0.00,384.00,VWS V14.00,2013-08-30 18:49:00,
2013-08-30 14:54:00,86.3,72.2,29.99,NE,44,0.0,0.0,63,0.00,,BKN031,0.00,410.00,VWS V14.00,2013-08-30 18:54:00,
2013-08-30 14:59:00,86.5,71.9,29.99,NE,48,0.0,0.0,62,0.00,,BKN031,0.00,862.00,VWS V14.00,2013-08-30 18:59:00,
2013-08-30 15:04:00,86.3,71.8,29.98,East,86,0.0,3.0,62,0.00,,SCT031,0.00,860.00,VWS V14.00,2013-08-30 19:04:00,
2013-08-30 15:09:00,86.7,72.6,29.98,SE,137,0.0,3.0,63,0.00,,SCT031,0.00,873.00,VWS V14.00,2013-08-30 19:09:00,
2013-08-30 15:14:00,87.2,72.6,29.98,NNE,31,0.0,1.0,62,0.00,,SCT031,0.00,841.00,VWS V14.00,2013-08-30 19:14:00,
2013-08-30 15:19:00,87.0,71.9,29.98,NNE,31,0.0,1.0,61,0.00,,SCT031,0.00,813.00,VWS V14.00,2013-08-30 19:19:00,
2013-08-30 15:24:00,87.2,72.6,29.98,NE,52,0.0,0.0,62,0.00,,SCT031,0.00,834.00,VWS V14.00,2013-08-30 19:24:00,
2013-08-30 15:29:00,87.6,71.5,29.98,NE,49,0.0,0.0,59,0.00,,SCT031,0.00,801.00,VWS V14.00,2013-08-30 19:29:00,
2013-08-30 15:34:00,87.6,71.0,29.97,East,99,0.0,0.0,58,0.00,,SCT031,0.00,892.00,VWS V14.00,2013-08-30 19:34:00,
2013-08-30 15:39:00,87.8,71.7,29.97,SW,226,0.0,0.0,59,0.00,,SCT031,0.00,278.00,VWS V14.00,2013-08-30 19:39:00,
2013-08-30 15:44:00,87.6,72.0,29.97,SW,220,0.0,0.0,60,0.00,,SCT031,0.00,271.00,VWS V14.00,2013-08-30 19:44:00,
2013-08-30 15:49:00,87.6,72.5,29.97,ENE,58,0.0,0.0,61,0.00,,SCT031,0.00,764.00,VWS V14.00,2013-08-30 19:49:00,
2013-08-30 15:54:00,87.2,72.1,29.97,ESE,112,0.0,1.0,61,0.00,,SCT031,0.00,684.00,VWS V14.00,2013-08-30 19:54:00,
2013-08-30 15:59:00,87.0,70.9,29.97,NE,48,0.0,1.0,59,0.00,,SCT031,0.00,686.00,VWS V14.00,2013-08-30 19:59:00,
2013-08-30 16:04:00,87.2,72.1,29.96,ENE,75,0.0,0.0,61,0.00,,BKN031,0.00,695.00,VWS V14.00,2013-08-30 20:04:00,
2013-08-30 16:09:00,87.2,71.6,29.96,ENE,75,0.0,0.0,60,0.00,,BKN031,0.00,695.00,VWS V14.00,2013-08-30 20:09:00,
2013-08-30 16:14:00,87.0,72.9,29.96,ENE,75,0.0,0.0,63,0.00,,BKN031,0.00,252.00,VWS V14.00,2013-08-30 20:14:00,
2013-08-30 16:19:00,87.0,71.9,29.95,NNE,13,0.0,1.0,61,0.00,,BKN031,0.00,252.00,VWS V14.00,2013-08-30 20:19:00,
2013-08-30 16:24:00,86.7,72.1,29.95,NNE,13,0.0,0.0,62,0.00,,BKN031,0.00,609.00,VWS V14.00,2013-08-30 20:24:00,
2013-08-30 16:29:00,87.0,72.4,29.95,NNE,13,0.0,0.0,62,0.00,,BKN031,0.00,602.00,VWS V14.00,2013-08-30 20:29:00,
2013-08-30 16:34:00,87.2,72.1,29.95,ENE,58,0.0,0.0,61,0.00,,BKN031,0.00,612.00,VWS V14.00,2013-08-30 20:34:00,
2013-08-30 16:39:00,87.4,71.3,29.95,East,82,0.0,2.0,59,0.00,,BKN031,0.00,595.00,VWS V14.00,2013-08-30 20:39:00,
2013-08-30 16:44:00,87.6,72.0,29.95,ESE,102,0.0,0.0,60,0.00,,BKN031,0.00,602.00,VWS V14.00,2013-08-30 20:44:00,
2013-08-30 16:49:00,87.8,73.2,29.94,ESE,117,0.0,0.0,62,0.00,,BKN031,0.00,570.00,VWS V14.00,2013-08-30 20:49:00,
2013-08-30 16:54:00,87.8,72.2,29.94,ENE,71,0.0,2.0,60,0.00,,BKN031,0.00,575.00,VWS V14.00,2013-08-30 20:54:00,
2013-08-30 16:59:00,88.0,72.4,29.94,North,11,0.0,2.0,60,0.00,,BKN031,0.00,554.00,VWS V14.00,2013-08-30 20:59:00,
2013-08-30 17:04:00,87.6,72.5,29.95,North,11,0.0,0.0,61,0.00,,BKN037,0.00,155.00,VWS V14.00,2013-08-30 21:04:00,
2013-08-30 17:09:00,87.2,73.1,29.95,North,11,0.0,0.0,63,0.00,,BKN037,0.00,561.00,VWS V14.00,2013-08-30 21:09:00,
2013-08-30 17:14:00,87.2,72.1,29.95,SSE,162,0.0,0.0,61,0.00,,BKN037,0.00,516.00,VWS V14.00,2013-08-30 21:14:00,
2013-08-30 17:19:00,87.0,72.4,29.95,SW,234,0.0,0.0,62,0.00,,BKN037,0.00,157.00,VWS V14.00,2013-08-30 21:19:00,
2013-08-30 17:24:00,86.7,72.1,29.95,SW,234,0.0,0.0,62,0.00,,BKN037,0.00,413.00,VWS V14.00,2013-08-30 21:24:00,
2013-08-30 17:29:00,86.7,73.1,29.95,SW,234,0.0,0.0,64,0.00,,BKN037,0.00,167.00,VWS V14.00,2013-08-30 21:29:00,
2013-08-30 17:34:00,86.5,72.4,29.95,ENE,62,0.0,0.0,63,0.00,,BKN037,0.00,150.00,VWS V14.00,2013-08-30 21:34:00,
2013-08-30 17:39:00,86.3,72.2,29.95,ENE,62,0.0,0.0,63,0.00,,BKN037,0.00,83.00,VWS V14.00,2013-08-30 21:39:00,
2013-08-30 17:44:00,85.9,72.3,29.95,ENE,62,0.0,0.0,64,0.00,,BKN037,0.00,77.00,VWS V14.00,2013-08-30 21:44:00,
2013-08-30 17:49:00,85.5,72.4,29.95,ENE,62,0.0,0.0,65,0.00,,BKN037,0.00,88.00,VWS V14.00,2013-08-30 21:49:00,
2013-08-30 17:54:00,85.1,72.0,29.95,ENE,62,0.0,0.0,65,0.00,,BKN037,0.00,95.00,VWS V14.00,2013-08-30 21:54:00,
2013-08-30 17:59:00,84.7,72.5,29.95,ENE,62,0.0,0.0,67,0.00,,BKN037,0.00,97.00,VWS V14.00,2013-08-30 21:59:00,
2013-08-30 18:04:00,84.5,71.9,29.95,ENE,62,0.0,0.0,66,0.00,,BKN037,0.00,93.00,VWS V14.00,2013-08-30 22:04:00,
2013-08-30 18:09:00,84.1,71.1,29.95,ENE,62,0.0,0.0,65,0.00,,BKN037,0.00,118.00,VWS V14.00,2013-08-30 22:09:00,
2013-08-30 18:14:00,84.1,72.4,29.95,ENE,62,0.0,0.0,68,0.00,,BKN037,0.00,88.00,VWS V14.00,2013-08-30 22:14:00,
2013-08-30 18:19:00,84.0,72.3,29.95,ENE,62,0.0,0.0,68,0.00,,BKN037,0.00,79.00,VWS V14.00,2013-08-30 22:19:00,
2013-08-30 18:24:00,83.8,72.1,29.95,ENE,62,0.0,0.0,68,0.00,,BKN037,0.00,74.00,VWS V14.00,2013-08-30 22:24:00,
2013-08-30 18:29:00,83.4,72.2,29.95,ENE,62,0.0,0.0,69,0.00,,BKN037,0.00,58.00,VWS V14.00,2013-08-30 22:29:00,
2013-08-30 18:34:00,83.2,72.4,29.96,ENE,62,0.0,0.0,70,0.00,,BKN037,0.00,56.00,VWS V14.00,2013-08-30 22:34:00,
2013-08-30 18:39:00,83.0,72.2,29.96,ENE,62,0.0,0.0,70,0.00,,BKN037,0.00,48.00,VWS V14.00,2013-08-30 22:39:00,
2013-08-30 18:44:00,82.8,72.4,29.96,ENE,62,0.0,0.0,71,0.00,,BKN037,0.00,48.00,VWS V14.00,2013-08-30 22:44:00,
2013-08-30 18:49:00,82.6,72.7,29.96,ENE,62,0.0,0.0,72,0.00,,BKN037,0.00,44.00,VWS V14.00,2013-08-30 22:49:00,
2013-08-30 18:54:00,82.4,72.5,29.96,ENE,62,0.0,0.0,72,0.00,,BKN037,0.00,42.00,VWS V14.00,2013-08-30 22:54:00,
2013-08-30 18:59:00,82.2,72.3,29.96,ENE,62,0.0,0.0,72,0.00,,BKN037,0.00,40.00,VWS V14.00,2013-08-30 22:59:00,
2013-08-30 19:04:00,81.8,72.3,29.96,ENE,62,0.0,0.0,73,0.00,,CLR,0.00,37.00,VWS V14.00,2013-08-30 23:04:00,
2013-08-30 19:09:00,81.6,72.5,29.96,ENE,62,0.0,0.0,74,0.00,,CLR,0.00,33.00,VWS V14.00,2013-08-30 23:09:00,
2013-08-30 19:14:00,81.6,72.5,29.96,ENE,62,0.0,0.0,74,0.00,,CLR,0.00,32.00,VWS V14.00,2013-08-30 23:14:00,
2013-08-30 19:19:00,81.4,72.7,29.96,ENE,62,0.0,0.0,75,0.00,,CLR,0.00,28.00,VWS V14.00,2013-08-30 23:19:00,
2013-08-30 19:24:00,81.2,72.5,29.96,ENE,62,0.0,0.0,75,0.00,,CLR,0.00,23.00,VWS V14.00,2013-08-30 23:24:00,
2013-08-30 19:29:00,81.1,72.4,29.96,ENE,62,0.0,0.0,75,0.00,,CLR,0.00,19.00,VWS V14.00,2013-08-30 23:29:00,
2013-08-30 19:34:00,81.1,72.4,29.96,ENE,62,0.0,0.0,75,0.00,,CLR,0.00,16.00,VWS V14.00,2013-08-30 23:34:00,
2013-08-30 19:39:00,80.9,72.6,29.96,ENE,62,0.0,0.0,76,0.00,,CLR,0.00,12.00,VWS V14.00,2013-08-30 23:39:00,
2013-08-30 19:44:00,80.7,72.4,29.96,ENE,62,0.0,0.0,76,0.00,,CLR,0.00,7.00,VWS V14.00,2013-08-30 23:44:00,
2013-08-30 19:49:00,80.5,72.2,29.96,ENE,62,0.0,0.0,76,0.00,,CLR,0.00,5.00,VWS V14.00,2013-08-30 23:49:00,
2013-08-30 19:54:00,80.3,72.4,29.96,ENE,62,0.0,0.0,77,0.00,,CLR,0.00,0.00,VWS V14.00,2013-08-30 23:54:00,
2013-08-30 19:59:00,80.1,72.2,29.96,ENE,62,0.0,0.0,77,0.00,,CLR,0.00,0.00,VWS V14.00,2013-08-30 23:59:00,
2013-08-30 20:04:00,79.9,72.1,29.96,ENE,62,0.0,0.0,77,0.00,,CLR,0.00,0.00,VWS V14.00,2013-08-31 00:04:00,
2013-08-30 20:09:00,79.8,72.3,29.96,ENE,62,0.0,0.0,78,0.00,,CLR,0.00,0.00,VWS V14.00,2013-08-31 00:09:00,
2013-08-30 20:14:00,79.6,72.1,29.96,ENE,62,0.0,0.0,78,0.00,,CLR,0.00,0.00,VWS V14.00,2013-08-31 00:14:00,
2013-08-30 20:19:00,79.4,71.9,29.96,ENE,62,0.0,0.0,78,0.00,,CLR,0.00,0.00,VWS V14.00,2013-08-31 00:19:00,
2013-08-30 20:24:00,79.2,72.1,29.96,ENE,62,0.0,0.0,79,0.00,,CLR,0.00,0.00,VWS V14.00,2013-08-31 00:24:00,
2013-08-30 20:29:00,79.0,71.9,29.96,ENE,62,0.0,0.0,79,0.00,,CLR,0.00,0.00,VWS V14.00,2013-08-31 00:29:00,
2013-08-30 20:34:00,78.6,71.9,29.97,ENE,62,0.0,0.0,80,0.00,,CLR,0.00,0.00,VWS V14.00,2013-08-31 00:34:00,
2013-08-30 20:39:00,78.5,72.2,29.97,ENE,62,0.0,0.0,81,0.00,,CLR,0.00,0.00,VWS V14.00,2013-08-31 00:39:00,
2013-08-30 20:44:00,78.3,72.0,29.97,ENE,62,0.0,0.0,81,0.00,,CLR,0.00,0.00,VWS V14.00,2013-08-31 00:44:00,
2013-08-30 20:49:00,78.1,70.3,29.97,ENE,62,0.0,0.0,77,0.00,,CLR,0.00,0.00,VWS V14.00,2013-08-31 00:49:00,
2013-08-30 20:54:00,77.9,70.1,29.97,ENE,62,0.0,0.0,77,0.00,,CLR,0.00,0.00,VWS V14.00,2013-08-31 00:54:00,
2013-08-30 20:59:00,77.7,69.9,29.97,ENE,62,0.0,0.0,77,0.00,,CLR,0.00,0.00,VWS V14.00,2013-08-31 00:59:00,
2013-08-30 21:04:00,77.6,69.8,29.98,ENE,62,0.0,0.0,77,0.00,,BKN045,0.00,0.00,VWS V14.00,2013-08-31 01:04:00,
2013-08-30 21:09:00,77.4,69.6,29.98,ENE,62,0.0,0.0,77,0.00,,BKN045,0.00,0.00,VWS V14.00,2013-08-31 01:09:00,
2013-08-30 21:14:00,77.4,70.0,29.98,ENE,62,0.0,0.0,78,0.00,,BKN045,0.00,0.00,VWS V14.00,2013-08-31 01:14:00,
2013-08-30 21:19:00,77.2,69.8,29.98,ENE,62,0.0,0.0,78,0.00,,BKN045,0.00,0.00,VWS V14.00,2013-08-31 01:19:00,
2013-08-30 21:24:00,77.0,69.6,29.98,ENE,62,0.0,0.0,78,0.00,,BKN045,0.00,0.00,VWS V14.00,2013-08-31 01:24:00,
2013-08-30 21:29:00,76.8,69.4,29.98,ENE,62,0.0,0.0,78,0.00,,BKN045,0.00,0.00,VWS V14.00,2013-08-31 01:29:00,
2013-08-30 21:34:00,76.8,69.8,29.98,ENE,62,0.0,0.0,79,0.00,,BKN045,0.00,0.00,VWS V14.00,2013-08-31 01:34:00,
2013-08-30 21:39:00,76.7,70.1,29.98,ENE,62,0.0,0.0,80,0.00,,BKN045,0.00,0.00,VWS V14.00,2013-08-31 01:39:00,
2013-08-30 21:44:00,76.5,69.9,29.98,ENE,62,0.0,0.0,80,0.00,,BKN045,0.00,0.00,VWS V14.00,2013-08-31 01:44:00,
2013-08-30 21:49:00,76.3,69.7,29.98,ENE,62,0.0,0.0,80,0.00,,BKN045,0.00,0.00,VWS V14.00,2013-08-31 01:49:00,
2013-08-30 21:54:00,76.1,69.5,29.98,ENE,62,0.0,0.0,80,0.00,,BKN045,0.00,0.00,VWS V14.00,2013-08-31 01:54:00,
2013-08-30 21:59:00,76.1,69.5,29.98,ENE,62,0.0,0.0,80,0.00,,BKN045,0.00,0.00,VWS V14.00,2013-08-31 01:59:00,
2013-08-30 22:04:00,76.0,69.4,29.98,ENE,62,0.0,0.0,80,0.00,,CLR,0.00,0.00,VWS V14.00,2013-08-31 02:04:00,
2013-08-30 22:09:00,75.8,69.6,29.98,ENE,62,0.0,0.0,81,0.00,,CLR,0.00,0.00,VWS V14.00,2013-08-31 02:09:00,
2013-08-30 22:14:00,75.8,69.6,29.98,ENE,62,0.0,0.0,81,0.00,,CLR,0.00,0.00,VWS V14.00,2013-08-31 02:14:00,
2013-08-30 22:19:00,75.6,69.4,29.98,ENE,62,0.0,0.0,81,0.00,,CLR,0.00,0.00,VWS V14.00,2013-08-31 02:19:00,
2013-08-30 22:24:00,75.4,69.2,29.98,ENE,62,0.0,0.0,81,0.00,,CLR,0.00,0.00,VWS V14.00,2013-08-31 02:24:00,
2013-08-30 22:29:00,75.4,69.2,29.98,ENE,62,0.0,0.0,81,0.00,,CLR,0.00,0.00,VWS V14.00,2013-08-31 02:29:00,
2013-08-30 22:34:00,75.3,69.1,29.98,ENE,62,0.0,0.0,81,0.00,,CLR,0.00,0.00,VWS V14.00,2013-08-31 02:34:00,
2013-08-30 22:39:00,75.1,69.2,29.98,ENE,62,0.0,0.0,82,0.00,,CLR,0.00,0.00,VWS V14.00,2013-08-31 02:39:00,
2013-08-30 22:44:00,75.1,69.2,29.98,ENE,62,0.0,0.0,82,0.00,,CLR,0.00,0.00,VWS V14.00,2013-08-31 02:44:00,
2013-08-30 22:49:00,74.9,69.0,29.98,ENE,62,0.0,0.0,82,0.00,,CLR,0.00,0.00,VWS V14.00,2013-08-31 02:49:00,
2013-08-30 22:54:00,74.9,69.0,29.98,ENE,62,0.0,0.0,82,0.00,,CLR,0.00,0.00,VWS V14.00,2013-08-31 02:54:00,
2013-08-30 22:59:00,74.7,68.8,29.98,ENE,62,0.0,0.0,82,0.00,,CLR,0.00,0.00,VWS V14.00,2013-08-31 02:59:00,
2013-08-30 23:04:00,74.6,69.1,29.98,ENE,62,0.0,0.0,83,0.00,,CLR,0.00,0.00,VWS V14.00,2013-08-31 03:04:00,
2013-08-30 23:09:00,74.6,69.1,29.98,ENE,62,0.0,0.0,83,0.00,,CLR,0.00,0.00,VWS V14.00,2013-08-31 03:09:00,
2013-08-30 23:14:00,74.4,68.9,29.98,ENE,62,0.0,0.0,83,0.00,,CLR,0.00,0.00,VWS V14.00,2013-08-31 03:14:00,
2013-08-30 23:19:00,74.4,68.9,29.98,ENE,62,0.0,0.0,83,0.00,,CLR,0.00,0.00,VWS V14.00,2013-08-31 03:19:00,
2013-08-30 23:24:00,74.2,68.7,29.98,ENE,62,0.0,0.0,83,0.00,,CLR,0.00,0.00,VWS V14.00,2013-08-31 03:24:00,
2013-08-30 23:29:00,74.2,69.1,29.98,ENE,62,0.0,0.0,84,0.00,,CLR,0.00,0.00,VWS V14.00,2013-08-31 03:29:00,
2013-08-30 23:34:00,74.0,68.9,29.98,ENE,62,0.0,0.0,84,0.00,,CLR,0.00,0.00,VWS V14.00,2013-08-31 03:34:00,
2013-08-30 23:39:00,74.0,68.9,29.98,ENE,62,0.0,0.0,84,0.00,,CLR,0.00,0.00,VWS V14.00,2013-08-31 03:39:00,
2013-08-30 23:44:00,73.9,68.8,29.98,ENE,62,0.0,0.0,84,0.00,,CLR,0.00,0.00,VWS V14.00,2013-08-31 03:44:00,
2013-08-30 23:49:00,73.9,68.8,29.98,ENE,62,0.0,0.0,84,0.00,,CLR,0.00,0.00,VWS V14.00,2013-08-31 03:49:00,
2013-08-30 23:54:00,73.9,68.8,29.98,ENE,62,0.0,0.0,84,0.00,,CLR,0.00,0.00,VWS V14.00,2013-08-31 03:54:00,
2013-08-30 23:59:00,73.7,68.6,29.98,ENE,62,0.0,0.0,84,0.00,,CLR,0.00,0.00,VWS V14.00,2013-08-31 03:59:00,